createdAt,value
2022-11-24T00:01:23.233Z,-0.60
2022-11-24T00:03:55.189Z,-0.60
2022-11-24T00:06:23.804Z,-0.60
2022-11-24T00:08:52.525Z,-0.60
2022-11-24T00:11:23.262Z,-0.60
2022-11-24T00:13:50.948Z,-0.60
2022-11-24T00:16:24.225Z,-0.60
2022-11-24T00:18:55.190Z,-0.60
2022-11-24T00:21:23.841Z,-0.60
2022-11-24T00:23:51.714Z,-0.60
2022-11-24T00:26:24.522Z,-0.60
2022-11-24T00:28:54.084Z,-0.70
2022-11-24T00:31:25.868Z,-0.70
2022-11-24T00:33:55.776Z,-0.70
2022-11-24T00:36:25.608Z,-0.70
2022-11-24T00:38:57.463Z,-0.70
2022-11-24T00:41:26.500Z,-0.70
2022-11-24T00:43:54.390Z,-0.70
2022-11-24T00:46:22.999Z,-0.70
2022-11-24T00:48:50.817Z,-0.70
2022-11-24T00:51:20.630Z,-0.80
2022-11-24T00:53:48.299Z,-0.70
2022-11-24T00:56:15.954Z,-0.70
2022-11-24T00:58:43.242Z,-0.70
2022-11-24T01:01:20.029Z,-0.70
2022-11-24T01:03:47.810Z,-0.70
2022-11-24T01:06:21.778Z,-0.70
2022-11-24T01:08:49.318Z,-0.70
2022-11-24T01:11:22.511Z,-0.70
2022-11-24T01:13:56.298Z,-0.70
2022-11-24T01:16:27.136Z,-0.70
2022-11-24T01:18:55.459Z,-0.70
2022-11-24T01:21:23.463Z,-0.70
2022-11-24T01:23:51.246Z,-0.70
2022-11-24T01:26:21.920Z,-0.70
2022-11-24T01:28:53.993Z,-0.70
2022-11-24T01:31:22.140Z,-0.70
2022-11-24T01:33:49.435Z,-0.70
2022-11-24T01:36:17.038Z,-0.70
2022-11-24T01:38:44.368Z,-0.70
2022-11-24T01:41:15.633Z,-0.60
2022-11-24T01:43:44.194Z,-0.60
2022-11-24T01:46:24.132Z,-0.60
2022-11-24T01:49:14.547Z,-0.60
2022-11-24T01:51:47.716Z,-0.60
2022-11-24T01:54:20.383Z,-0.60
2022-11-24T01:56:51.977Z,-0.60
2022-11-24T01:59:21.173Z,-0.50
2022-11-24T02:01:50.697Z,-0.50
2022-11-24T02:04:24.101Z,-0.50
2022-11-24T02:06:54.079Z,-0.50
2022-11-24T02:09:30.322Z,-0.50
2022-11-24T02:12:01.068Z,-0.50
2022-11-24T02:14:29.188Z,-0.50
2022-11-24T02:16:56.762Z,-0.60
2022-11-24T02:19:31.679Z,-0.50
2022-11-24T02:21:59.420Z,-0.50
2022-11-24T02:24:48.392Z,-0.50
2022-11-24T02:27:16.261Z,-0.60
2022-11-24T02:29:43.766Z,-0.50
2022-11-24T02:32:12.236Z,-0.60
2022-11-24T02:34:39.515Z,-0.50
2022-11-24T02:37:07.168Z,-0.60
2022-11-24T02:39:34.766Z,-0.60
2022-11-24T02:42:08.267Z,-0.60
2022-11-24T02:44:41.171Z,-0.60
2022-11-24T02:47:11.191Z,-0.60
2022-11-24T02:49:38.962Z,-0.60
2022-11-24T02:52:07.503Z,-0.50
2022-11-24T02:54:35.060Z,-0.50
2022-11-24T02:57:02.875Z,-0.50
2022-11-24T02:59:30.193Z,-0.50
2022-11-24T03:01:58.008Z,-0.50
2022-11-24T03:04:25.441Z,-0.50
2022-11-24T03:06:53.095Z,-0.50
2022-11-24T03:09:20.790Z,-0.50
2022-11-24T03:11:48.371Z,-0.50
2022-11-24T03:14:15.715Z,-0.50
2022-11-24T03:16:43.312Z,-0.40
2022-11-24T03:19:10.846Z,-0.50
2022-11-24T03:21:38.406Z,-0.50
2022-11-24T03:24:05.933Z,-0.50
2022-11-24T03:26:34.814Z,-0.50
2022-11-24T03:29:02.137Z,-0.50
2022-11-24T03:31:29.812Z,-0.50
2022-11-24T03:33:57.124Z,-0.50
2022-11-24T03:36:24.762Z,-0.50
2022-11-24T03:38:52.092Z,-0.50
2022-11-24T03:41:20.174Z,-0.50
2022-11-24T03:43:47.896Z,-0.50
2022-11-24T03:46:15.537Z,-0.50
2022-11-24T03:48:42.861Z,-0.50
2022-11-24T03:51:10.966Z,-0.50
2022-11-24T03:53:38.436Z,-0.50
2022-11-24T03:56:06.259Z,-0.50
2022-11-24T03:58:33.806Z,-0.50
2022-11-24T04:01:01.382Z,-0.40
2022-11-24T04:03:28.868Z,-0.40
2022-11-24T04:05:56.509Z,-0.40
2022-11-24T04:08:23.749Z,-0.40
2022-11-24T04:10:53.809Z,-0.40
2022-11-24T04:13:24.882Z,-0.40
2022-11-24T04:15:53.109Z,-0.40
2022-11-24T04:18:20.994Z,-0.40
2022-11-24T04:20:51.883Z,-0.40
2022-11-24T04:23:19.293Z,-0.40
2022-11-24T04:25:47.030Z,-0.40
2022-11-24T04:28:14.443Z,-0.40
2022-11-24T04:30:45.013Z,-0.30
2022-11-24T04:33:13.346Z,-0.30
2022-11-24T04:35:41.025Z,-0.30
2022-11-24T04:38:08.367Z,-0.40
2022-11-24T04:40:35.997Z,-0.30
2022-11-24T04:43:03.249Z,-0.40
2022-11-24T04:45:30.866Z,-0.40
2022-11-24T04:47:58.174Z,-0.30
2022-11-24T04:50:25.976Z,-0.30
2022-11-24T04:52:53.276Z,-0.30
2022-11-24T04:55:20.931Z,-0.30
2022-11-24T04:57:48.225Z,-0.30
2022-11-24T05:00:16.151Z,-0.30
2022-11-24T05:02:43.499Z,-0.30
2022-11-24T05:05:11.496Z,-0.30
2022-11-24T05:07:39.224Z,-0.30
2022-11-24T05:10:25.818Z,-0.30
2022-11-24T05:12:57.321Z,-0.30
2022-11-24T05:15:25.354Z,-0.30
2022-11-24T05:17:52.744Z,-0.30
2022-11-24T05:20:21.111Z,-0.30
2022-11-24T05:22:48.644Z,-0.30
2022-11-24T05:25:16.348Z,-0.30
2022-11-24T05:27:43.909Z,-0.30
2022-11-24T05:30:11.931Z,-0.40
2022-11-24T05:32:39.133Z,-0.40
2022-11-24T05:35:06.965Z,-0.40
2022-11-24T05:37:35.064Z,-0.40
2022-11-24T05:40:02.715Z,-0.30
2022-11-24T05:42:46.739Z,-0.40
2022-11-24T05:45:17.858Z,-0.40
2022-11-24T05:47:45.588Z,-0.40
2022-11-24T05:50:15.269Z,-0.30
2022-11-24T05:52:42.938Z,-0.40
2022-11-24T05:55:11.582Z,-0.40
2022-11-24T05:57:39.387Z,-0.40
2022-11-24T06:00:08.227Z,-0.50
2022-11-24T06:02:41.791Z,-0.50
2022-11-24T06:05:09.748Z,-0.50
2022-11-24T06:07:37.602Z,-0.50
2022-11-24T06:10:08.337Z,-0.60
2022-11-24T06:12:36.224Z,-0.60
2022-11-24T06:15:03.808Z,-0.60
2022-11-24T06:17:31.314Z,-0.60
2022-11-24T06:19:58.505Z,-0.60
2022-11-24T06:22:26.064Z,-0.60
2022-11-24T06:24:53.391Z,-0.60
2022-11-24T06:27:20.847Z,-0.60
2022-11-24T06:29:48.216Z,-0.60
2022-11-24T06:32:15.487Z,-0.60
2022-11-24T06:34:43.535Z,-0.60
2022-11-24T06:37:11.003Z,-0.60
2022-11-24T06:39:38.664Z,-0.60
2022-11-24T06:42:06.074Z,-0.70
2022-11-24T06:44:34.080Z,-0.60
2022-11-24T06:47:02.040Z,-0.60
2022-11-24T06:49:29.552Z,-0.60
2022-11-24T06:51:56.810Z,-0.60
2022-11-24T06:54:24.319Z,-0.60
2022-11-24T06:56:59.874Z,-0.60
2022-11-24T06:59:27.834Z,-0.60
2022-11-24T07:01:55.182Z,-0.60
2022-11-24T07:04:22.733Z,-0.60
2022-11-24T07:06:49.964Z,-0.60
2022-11-24T07:09:17.441Z,-0.50
2022-11-24T07:11:44.705Z,-0.60
2022-11-24T07:14:12.770Z,-0.50
2022-11-24T07:16:40.600Z,-0.50
2022-11-24T07:19:10.315Z,-0.40
2022-11-24T07:21:37.605Z,-0.40
2022-11-24T07:24:05.508Z,-0.40
2022-11-24T07:26:37.299Z,-0.40
2022-11-24T07:29:05.724Z,-0.30
2022-11-24T07:31:33.096Z,-0.30
2022-11-24T07:34:01.395Z,-0.30
2022-11-24T07:36:28.603Z,-0.30
2022-11-24T07:38:56.222Z,-0.30
2022-11-24T07:41:23.559Z,-0.30
2022-11-24T07:43:51.993Z,-0.30
2022-11-24T07:46:20.132Z,-0.30
2022-11-24T07:48:47.893Z,-0.30
2022-11-24T07:51:15.953Z,-0.30
2022-11-24T07:53:43.872Z,-0.30
2022-11-24T07:56:12.606Z,-0.30
2022-11-24T07:58:40.470Z,-0.30
2022-11-24T08:01:18.107Z,-0.20
2022-11-24T08:03:46.928Z,-0.20
2022-11-24T08:06:38.585Z,-0.20
2022-11-24T08:09:02.554Z,-0.20
2022-11-24T08:11:31.721Z,-0.10
2022-11-24T08:13:59.491Z,-0.10
2022-11-24T08:16:26.821Z,-0.20
2022-11-24T08:18:55.805Z,-0.20
2022-11-24T08:21:25.324Z,-0.20
2022-11-24T08:23:57.139Z,-0.20
2022-11-24T08:26:25.269Z,-0.20
2022-11-24T08:28:56.405Z,-0.20
2022-11-24T08:31:27.417Z,-0.20
2022-11-24T08:33:56.037Z,-0.20
2022-11-24T08:36:23.336Z,-0.10
2022-11-24T08:38:58.646Z,-0.10
2022-11-24T08:41:27.640Z,-0.10
2022-11-24T08:43:55.581Z,-0.10
2022-11-24T08:46:23.996Z,0.00
2022-11-24T08:48:55.330Z,0.00
2022-11-24T08:51:26.268Z,0.00
2022-11-24T08:53:56.002Z,0.10
2022-11-24T08:56:23.647Z,0.10
2022-11-24T08:58:51.265Z,0.10
2022-11-24T09:01:18.885Z,0.10
2022-11-24T09:03:51.045Z,0.10
2022-11-24T09:06:23.255Z,0.10
2022-11-24T09:08:55.849Z,0.20
2022-11-24T09:11:24.142Z,0.20
2022-11-24T09:13:52.099Z,0.30
2022-11-24T09:16:21.816Z,0.30
2022-11-24T09:19:02.982Z,0.30
2022-11-24T09:21:34.418Z,0.40
2022-11-24T09:24:02.170Z,0.30
2022-11-24T09:26:34.697Z,0.40
2022-11-24T09:29:04.177Z,0.40
2022-11-24T09:31:36.069Z,0.40
2022-11-24T09:34:07.236Z,0.40
2022-11-24T09:36:35.338Z,0.40
2022-11-24T09:39:03.432Z,0.40
2022-11-24T09:42:02.340Z,0.40
2022-11-24T09:44:54.848Z,0.40
2022-11-24T09:47:51.159Z,0.40
2022-11-24T09:50:28.316Z,0.50
2022-11-24T09:53:18.054Z,0.50
2022-11-24T09:55:53.571Z,0.50
2022-11-24T09:58:39.420Z,0.50
2022-11-24T10:01:22.831Z,0.50
2022-11-24T10:03:52.090Z,0.50
2022-11-24T10:06:44.004Z,0.50
2022-11-24T10:09:23.568Z,0.60
2022-11-24T10:11:51.238Z,0.60
2022-11-24T10:14:50.345Z,0.70
2022-11-24T10:17:35.596Z,0.70
2022-11-24T10:20:16.156Z,0.70
2022-11-24T10:23:18.884Z,0.70
2022-11-24T10:25:59.165Z,0.80
2022-11-24T10:28:47.927Z,0.80
2022-11-24T10:31:36.489Z,0.80
2022-11-24T10:34:39.257Z,0.90
2022-11-24T10:37:32.952Z,0.80
2022-11-24T10:40:33.505Z,0.80
2022-11-24T10:43:10.476Z,0.80
2022-11-24T10:45:39.563Z,0.80
2022-11-24T10:48:14.692Z,0.80
2022-11-24T10:50:43.256Z,0.80
2022-11-24T10:53:34.531Z,0.80
2022-11-24T10:56:04.964Z,0.80
2022-11-24T10:58:38.548Z,0.90
2022-11-24T11:01:15.518Z,0.80
2022-11-24T11:03:58.236Z,0.90
2022-11-24T11:06:31.443Z,0.90
2022-11-24T11:09:08.121Z,0.90
2022-11-24T11:11:35.847Z,1.00
2022-11-24T11:14:08.242Z,0.90
2022-11-24T11:16:46.019Z,0.90
2022-11-24T11:19:53.259Z,0.90
2022-11-24T11:22:31.754Z,0.90
2022-11-24T11:25:28.459Z,0.90
2022-11-24T11:28:31.461Z,0.90
2022-11-24T11:31:22.009Z,0.90
2022-11-24T11:34:19.281Z,0.80
2022-11-24T11:36:53.558Z,0.80
2022-11-24T11:39:23.525Z,0.80
2022-11-24T11:41:58.646Z,0.90
2022-11-24T11:44:37.958Z,0.90
2022-11-24T11:47:22.823Z,0.90
2022-11-24T11:49:50.556Z,0.80
2022-11-24T11:52:29.675Z,0.80
2022-11-24T11:55:06.179Z,0.90
2022-11-24T11:57:46.004Z,0.80
2022-11-24T12:00:19.456Z,0.80
2022-11-24T12:03:10.977Z,0.80
2022-11-24T12:05:56.933Z,0.90
2022-11-24T12:08:49.501Z,0.90
2022-11-24T12:12:11.158Z,0.90
2022-11-24T12:14:56.236Z,0.90
2022-11-24T12:17:41.042Z,0.90
2022-11-24T12:20:37.131Z,0.90
2022-11-24T12:23:23.234Z,0.80
2022-11-24T12:26:14.888Z,0.90
2022-11-24T12:28:57.013Z,0.80
2022-11-24T12:31:31.623Z,0.80
2022-11-24T12:34:23.474Z,0.80
2022-11-24T12:37:21.787Z,0.80
2022-11-24T12:40:02.639Z,0.70
2022-11-24T12:42:38.940Z,0.70
2022-11-24T12:45:09.181Z,0.70
2022-11-24T12:48:13.412Z,0.70
2022-11-24T12:50:43.445Z,0.70
2022-11-24T12:53:23.801Z,0.70
2022-11-24T12:55:52.665Z,0.70
2022-11-24T12:58:32.214Z,0.60
2022-11-24T13:01:17.059Z,0.70
2022-11-24T13:04:06.079Z,0.60
2022-11-24T13:06:51.949Z,0.60
2022-11-24T13:09:19.470Z,0.60
2022-11-24T13:11:52.228Z,0.60
2022-11-24T13:14:36.926Z,0.60
2022-11-24T13:17:39.703Z,0.60
2022-11-24T13:20:23.870Z,0.60
2022-11-24T13:22:57.288Z,0.60
2022-11-24T13:25:31.445Z,0.60
2022-11-24T13:28:01.134Z,0.60
2022-11-24T13:30:34.345Z,0.60
2022-11-24T13:33:16.554Z,0.60
2022-11-24T13:36:02.732Z,0.60
2022-11-24T13:38:39.539Z,0.60
2022-11-24T13:41:28.197Z,0.60
2022-11-24T13:44:17.501Z,0.60
2022-11-24T13:47:06.736Z,0.60
2022-11-24T13:49:39.295Z,0.70
2022-11-24T13:52:37.744Z,0.70
2022-11-24T13:55:19.493Z,0.60
2022-11-24T13:57:52.775Z,0.60
2022-11-24T14:00:22.004Z,0.60
2022-11-24T14:02:51.406Z,0.60
2022-11-24T14:05:23.048Z,0.60
2022-11-24T14:07:52.981Z,0.60
2022-11-24T14:10:29.099Z,0.50
2022-11-24T14:13:21.390Z,0.50
2022-11-24T14:16:10.839Z,0.60
2022-11-24T14:18:40.378Z,0.50
2022-11-24T14:21:20.421Z,0.50
2022-11-24T14:24:12.558Z,0.50
2022-11-24T14:26:41.263Z,0.40
2022-11-24T14:29:14.452Z,0.40
2022-11-24T14:31:43.848Z,0.40
2022-11-24T14:34:23.140Z,0.40
2022-11-24T14:36:52.208Z,0.40
2022-11-24T14:39:23.110Z,0.30
2022-11-24T14:42:00.800Z,0.40
2022-11-24T14:44:54.238Z,0.40
2022-11-24T14:47:31.828Z,0.40
2022-11-24T14:50:16.270Z,0.40
2022-11-24T14:52:56.461Z,0.40
2022-11-24T14:55:39.224Z,0.40
2022-11-24T14:58:31.050Z,0.40
2022-11-24T15:01:29.799Z,0.40
2022-11-24T15:04:21.646Z,0.40
2022-11-24T15:07:18.988Z,0.40
2022-11-24T15:09:51.259Z,0.40
2022-11-24T15:12:41.502Z,0.40
2022-11-24T15:15:15.233Z,0.40
2022-11-24T15:17:56.229Z,0.40
2022-11-24T15:20:29.688Z,0.40
2022-11-24T15:23:25.985Z,0.40
2022-11-24T15:25:57.823Z,0.50
2022-11-24T15:28:28.464Z,0.40
2022-11-24T15:31:09.647Z,0.40
2022-11-24T15:33:37.066Z,0.50
2022-11-24T15:36:05.133Z,0.50
2022-11-24T15:38:32.402Z,0.50
2022-11-24T15:41:01.009Z,0.50
2022-11-24T15:43:37.135Z,0.40
2022-11-24T15:46:06.308Z,0.50
2022-11-24T15:48:33.933Z,0.50
2022-11-24T15:51:12.991Z,0.50
2022-11-24T15:53:45.161Z,0.40
2022-11-24T15:56:16.395Z,0.40
2022-11-24T15:58:43.648Z,0.40
2022-11-24T16:01:11.215Z,0.40
2022-11-24T16:03:46.888Z,0.40
2022-11-24T16:06:24.231Z,0.40
2022-11-24T16:08:53.380Z,0.40
2022-11-24T16:11:21.784Z,0.40
2022-11-24T16:13:52.975Z,0.50
2022-11-24T16:16:23.209Z,0.50
2022-11-24T16:18:50.711Z,0.50
2022-11-24T16:21:18.541Z,0.50
2022-11-24T16:23:46.585Z,0.50
2022-11-24T16:26:14.194Z,0.50
2022-11-24T16:28:42.096Z,0.50
2022-11-24T16:31:09.647Z,0.50
2022-11-24T16:33:40.741Z,0.50
2022-11-24T16:36:08.784Z,0.50
2022-11-24T16:38:36.023Z,0.50
2022-11-24T16:41:03.684Z,0.50
2022-11-24T16:43:30.836Z,0.50
2022-11-24T16:46:16.313Z,0.50
2022-11-24T16:48:44.933Z,0.50
2022-11-24T16:51:13.632Z,0.50
2022-11-24T16:53:41.688Z,0.50
2022-11-24T16:56:09.569Z,0.50
2022-11-24T16:58:41.289Z,0.50
2022-11-24T17:01:13.506Z,0.50
2022-11-24T17:03:41.067Z,0.50
2022-11-24T17:06:13.171Z,0.40
2022-11-24T17:08:41.215Z,0.50
2022-11-24T17:11:17.993Z,0.40
2022-11-24T17:13:47.405Z,0.50
2022-11-24T17:16:22.668Z,0.50
2022-11-24T17:18:50.440Z,0.50
2022-11-24T17:21:19.227Z,0.50
2022-11-24T17:23:46.789Z,0.40
2022-11-24T17:26:16.941Z,0.40
2022-11-24T17:28:44.966Z,0.40
2022-11-24T17:31:22.699Z,0.40
2022-11-24T17:33:50.665Z,0.40
2022-11-24T17:36:18.127Z,0.40
2022-11-24T17:38:45.589Z,0.40
2022-11-24T17:41:13.198Z,0.40
2022-11-24T17:43:41.123Z,0.40
2022-11-24T17:46:10.303Z,0.30
2022-11-24T17:48:37.585Z,0.40
2022-11-24T17:51:12.974Z,0.40
2022-11-24T17:53:42.706Z,0.40
2022-11-24T17:56:15.471Z,0.40
2022-11-24T17:58:43.515Z,0.40
2022-11-24T18:01:12.644Z,0.40
2022-11-24T18:03:40.944Z,0.40
2022-11-24T18:06:10.887Z,0.40
2022-11-24T18:08:43.669Z,0.40
2022-11-24T18:11:15.523Z,0.40
2022-11-24T18:14:00.951Z,0.30
2022-11-24T18:16:31.229Z,0.30
2022-11-24T18:19:10.043Z,0.30
2022-11-24T18:21:40.045Z,0.30
2022-11-24T18:24:11.476Z,0.30
2022-11-24T18:26:41.585Z,0.30
2022-11-24T18:29:11.791Z,0.30
2022-11-24T18:31:39.717Z,0.30
2022-11-24T18:34:07.808Z,0.20
2022-11-24T18:36:35.995Z,0.30
2022-11-24T18:39:05.421Z,0.30
2022-11-24T18:41:34.053Z,0.20
2022-11-24T18:44:13.784Z,0.20
2022-11-24T18:46:41.634Z,0.20
2022-11-24T18:49:09.275Z,0.20
2022-11-24T18:51:36.823Z,0.20
2022-11-24T18:54:05.552Z,0.20
2022-11-24T18:56:33.315Z,0.20
2022-11-24T18:59:00.581Z,0.20
2022-11-24T19:01:38.678Z,0.20
2022-11-24T19:04:05.956Z,0.20
2022-11-24T19:06:36.728Z,0.20
2022-11-24T19:09:07.290Z,0.30
2022-11-24T19:11:37.414Z,0.30
2022-11-24T19:14:07.637Z,0.30
2022-11-24T19:16:36.507Z,0.20
2022-11-24T19:19:04.568Z,0.20
2022-11-24T19:21:34.467Z,0.20
2022-11-24T19:24:05.372Z,0.20
2022-11-24T19:26:37.304Z,0.30
2022-11-24T19:29:06.174Z,0.30
2022-11-24T19:31:34.646Z,0.30
2022-11-24T19:34:03.184Z,0.30
2022-11-24T19:36:31.215Z,0.30
2022-11-24T19:38:59.018Z,0.30
2022-11-24T19:41:31.262Z,0.30
2022-11-24T19:43:59.259Z,0.30
2022-11-24T19:46:30.459Z,0.20
2022-11-24T19:49:02.569Z,0.30
2022-11-24T19:51:32.337Z,0.30
2022-11-24T19:54:00.688Z,0.20
2022-11-24T19:56:30.209Z,0.30
2022-11-24T19:58:58.103Z,0.30
2022-11-24T20:01:31.340Z,0.30
2022-11-24T20:04:04.518Z,0.20
2022-11-24T20:06:35.001Z,0.20
2022-11-24T20:09:03.672Z,0.20
2022-11-24T20:11:31.073Z,0.20
2022-11-24T20:13:59.112Z,0.20
2022-11-24T20:16:29.926Z,0.20
2022-11-24T20:19:00.834Z,0.20
2022-11-24T20:21:31.556Z,0.10
2022-11-24T20:24:08.415Z,0.20
2022-11-24T20:26:38.291Z,0.20
2022-11-24T20:29:08.754Z,0.20
2022-11-24T20:31:39.337Z,0.20
2022-11-24T20:34:07.899Z,0.20
2022-11-24T20:36:37.365Z,0.20
2022-11-24T20:39:08.084Z,0.20
2022-11-24T20:41:37.515Z,0.10
2022-11-24T20:44:08.694Z,0.10
2022-11-24T20:46:39.021Z,0.10
2022-11-24T20:49:08.619Z,0.10
2022-11-24T20:51:39.879Z,0.10
2022-11-24T20:54:08.936Z,0.10
2022-11-24T20:56:39.849Z,0.00
2022-11-24T20:59:08.899Z,0.00
2022-11-24T21:01:39.280Z,0.00
2022-11-24T21:04:10.116Z,0.00
2022-11-24T21:06:37.790Z,0.10
2022-11-24T21:09:06.673Z,0.10
2022-11-24T21:11:34.078Z,0.10
2022-11-24T21:14:01.966Z,0.10
2022-11-24T21:16:40.216Z,0.10
2022-11-24T21:19:11.711Z,0.10
2022-11-24T21:21:39.661Z,0.10
2022-11-24T21:24:15.995Z,0.10
2022-11-24T21:26:44.421Z,0.10
2022-11-24T21:29:13.967Z,0.10
2022-11-24T21:31:41.747Z,0.20
2022-11-24T21:34:09.941Z,0.20
2022-11-24T21:36:40.810Z,0.20
2022-11-24T21:39:12.203Z,0.20
2022-11-24T21:41:39.862Z,0.20
2022-11-24T21:44:07.394Z,0.20
2022-11-24T21:46:43.569Z,0.20
2022-11-24T21:49:13.752Z,0.20
2022-11-24T21:51:40.917Z,0.20
2022-11-24T21:54:08.967Z,0.10
2022-11-24T21:56:36.206Z,0.10
2022-11-24T21:59:03.768Z,0.10
2022-11-24T22:01:31.113Z,0.10
2022-11-24T22:03:59.000Z,0.10
2022-11-24T22:06:26.154Z,0.10
2022-11-24T22:08:54.821Z,0.10
2022-11-24T22:11:23.579Z,0.10
2022-11-24T22:13:51.811Z,0.10
2022-11-24T22:16:21.969Z,0.10
2022-11-24T22:18:50.284Z,0.10
2022-11-24T22:21:24.287Z,0.10
2022-11-24T22:23:52.844Z,0.10
2022-11-24T22:26:22.486Z,0.10
2022-11-24T22:28:50.856Z,0.10
2022-11-24T22:31:23.216Z,0.10
2022-11-24T22:33:51.683Z,0.10
2022-11-24T22:36:23.681Z,0.10
2022-11-24T22:39:04.358Z,0.10
2022-11-24T22:41:33.743Z,0.20
2022-11-24T22:44:01.632Z,0.20
2022-11-24T22:46:30.604Z,0.20
2022-11-24T22:49:01.915Z,0.20
2022-11-24T22:51:32.538Z,0.20
2022-11-24T22:54:02.756Z,0.20
2022-11-24T22:56:33.578Z,0.20
2022-11-24T22:59:02.153Z,0.20
2022-11-24T23:01:30.752Z,0.20
2022-11-24T23:03:58.761Z,0.20
2022-11-24T23:06:27.978Z,0.20
2022-11-24T23:08:56.777Z,0.20
2022-11-24T23:11:33.824Z,0.20
2022-11-24T23:14:07.120Z,0.20
2022-11-24T23:16:34.491Z,0.10
2022-11-24T23:19:01.942Z,0.20
2022-11-24T23:21:31.418Z,0.10
2022-11-24T23:24:01.067Z,0.20
2022-11-24T23:26:36.981Z,0.20
2022-11-24T23:29:05.693Z,0.10
2022-11-24T23:31:33.365Z,0.10
2022-11-24T23:34:02.875Z,0.10
2022-11-24T23:36:31.199Z,0.10
2022-11-24T23:39:03.875Z,0.10
2022-11-24T23:41:31.932Z,0.10
2022-11-24T23:44:00.119Z,0.10
2022-11-24T23:46:28.070Z,0.10
2022-11-24T23:48:55.976Z,0.10
2022-11-24T23:51:27.725Z,0.10
2022-11-24T23:56:37.945Z,0.00
2022-11-24T23:59:05.874Z,0.00
